createdAt,value
2023-01-29T00:01:31.440Z,101692.76
2023-01-29T00:03:59.703Z,101694.65
2023-01-29T00:06:27.977Z,101687.96
2023-01-29T00:08:56.432Z,101687.50
2023-01-29T00:11:25.011Z,101686.98
2023-01-29T00:13:53.422Z,101678.40
2023-01-29T00:16:21.617Z,101676.86
2023-01-29T00:18:49.916Z,101672.38
2023-01-29T00:21:19.607Z,101672.04
2023-01-29T00:23:47.895Z,101671.86
2023-01-29T00:26:16.596Z,101666.86
2023-01-29T00:28:45.590Z,101658.42
2023-01-29T00:31:15.334Z,101652.70
2023-01-29T00:33:45.401Z,101652.87
2023-01-29T00:36:15.093Z,101651.66
2023-01-29T00:38:43.528Z,101649.42
2023-01-29T00:41:31.523Z,101645.83
2023-01-29T00:44:19.016Z,101647.40
2023-01-29T00:46:47.192Z,101650.89
2023-01-29T00:49:15.413Z,101653.66
2023-01-29T00:51:43.761Z,101651.41
2023-01-29T00:54:12.109Z,101654.11
2023-01-29T00:56:40.298Z,101651.31
2023-01-29T00:59:08.484Z,101655.92
2023-01-29T01:01:54.518Z,101654.13
2023-01-29T01:04:22.825Z,101647.52
2023-01-29T01:06:50.996Z,101643.02
2023-01-29T01:09:37.248Z,101636.35
2023-01-29T01:12:06.786Z,101634.98
2023-01-29T01:14:35.443Z,101633.08
2023-01-29T01:17:04.923Z,101629.31
2023-01-29T01:19:34.130Z,101618.46
2023-01-29T01:22:04.283Z,101617.79
2023-01-29T01:24:32.689Z,101614.48
2023-01-29T01:27:01.049Z,101615.66
2023-01-29T01:29:29.561Z,101616.17
2023-01-29T01:31:58.575Z,101602.63
2023-01-29T01:34:27.074Z,101613.55
2023-01-29T01:36:55.705Z,101617.48
2023-01-29T01:39:24.651Z,101611.28
2023-01-29T01:41:53.222Z,101604.76
2023-01-29T01:44:52.964Z,101600.77
2023-01-29T01:47:24.801Z,101600.78
2023-01-29T01:49:53.941Z,101602.73
2023-01-29T01:52:22.324Z,101598.96
2023-01-29T01:54:51.272Z,101604.73
2023-01-29T01:57:24.407Z,101606.30
2023-01-29T01:59:56.966Z,101605.46
2023-01-29T02:02:44.215Z,101602.05
2023-01-29T02:05:31.124Z,101608.59
2023-01-29T02:08:17.505Z,101611.15
2023-01-29T02:10:47.397Z,101607.84
2023-01-29T02:13:17.961Z,101607.15
2023-01-29T02:15:48.020Z,101602.45
2023-01-29T02:18:17.797Z,101607.08
2023-01-29T02:20:53.499Z,101611.50
2023-01-29T02:23:32.714Z,101606.83
2023-01-29T02:26:13.510Z,101608.56
2023-01-29T02:28:44.666Z,101600.84
2023-01-29T02:31:24.308Z,101607.94
2023-01-29T02:34:04.121Z,101608.66
2023-01-29T02:36:37.801Z,101602.42
2023-01-29T02:39:14.341Z,101598.59
2023-01-29T02:41:49.097Z,101594.10
2023-01-29T02:44:22.560Z,101591.15
2023-01-29T02:46:56.857Z,101585.61
2023-01-29T02:49:30.965Z,101589.38
2023-01-29T02:52:02.188Z,101587.30
2023-01-29T02:54:35.463Z,101579.57
2023-01-29T02:57:07.283Z,101581.77
2023-01-29T02:59:39.194Z,101581.58
2023-01-29T03:02:10.673Z,101582.77
2023-01-29T03:04:45.070Z,101584.80
2023-01-29T03:07:38.120Z,101582.58
2023-01-29T03:10:11.994Z,101581.21
2023-01-29T03:12:41.628Z,101580.40
2023-01-29T03:15:14.408Z,101578.90
2023-01-29T03:17:49.365Z,101571.71
2023-01-29T03:20:20.279Z,101564.48
2023-01-29T03:22:52.374Z,101569.45
2023-01-29T03:25:40.306Z,101572.02
2023-01-29T03:28:25.851Z,101563.91
2023-01-29T03:31:13.683Z,101560.59
2023-01-29T03:33:52.161Z,101554.38
2023-01-29T03:36:24.908Z,101554.70
2023-01-29T03:38:53.383Z,101548.30
2023-01-29T03:41:25.289Z,101556.07
2023-01-29T03:44:00.862Z,101560.52
2023-01-29T03:46:32.188Z,101556.20
2023-01-29T03:49:06.656Z,101554.63
2023-01-29T03:51:38.192Z,101561.35
2023-01-29T03:54:11.970Z,101563.98
2023-01-29T03:56:53.503Z,101564.20
2023-01-29T03:59:29.615Z,101560.10
2023-01-29T04:02:18.629Z,101558.75
2023-01-29T04:04:51.254Z,101558.41
2023-01-29T04:07:23.973Z,101555.32
2023-01-29T04:10:01.772Z,101557.04
2023-01-29T04:12:41.013Z,101554.10
2023-01-29T04:15:09.884Z,101553.39
2023-01-29T04:17:40.223Z,101550.61
2023-01-29T04:20:31.565Z,101544.75
2023-01-29T04:22:59.794Z,101545.23
2023-01-29T04:25:31.404Z,101545.24
2023-01-29T04:28:05.632Z,101543.23
2023-01-29T04:30:41.845Z,101536.56
2023-01-29T04:33:22.402Z,101533.16
2023-01-29T04:36:05.444Z,101531.48
2023-01-29T04:38:43.853Z,101525.98
2023-01-29T04:41:18.545Z,101528.56
2023-01-29T04:43:55.615Z,101528.41
2023-01-29T04:46:27.752Z,101527.89
2023-01-29T04:49:06.142Z,101522.38
2023-01-29T04:51:43.712Z,101516.50
2023-01-29T04:54:18.334Z,101513.55
2023-01-29T04:56:53.242Z,101514.55
2023-01-29T04:59:25.047Z,101508.83
2023-01-29T05:01:53.698Z,101507.41
2023-01-29T05:04:22.140Z,101501.39
2023-01-29T05:06:50.697Z,101497.23
2023-01-29T05:09:19.375Z,101501.52
2023-01-29T05:11:48.052Z,101504.64
2023-01-29T05:14:18.952Z,101509.52
2023-01-29T05:16:49.530Z,101510.77
2023-01-29T05:19:17.840Z,101516.13
2023-01-29T05:21:47.862Z,101514.95
2023-01-29T05:24:17.674Z,101513.23
2023-01-29T05:27:06.492Z,101514.60
2023-01-29T05:29:34.805Z,101510.46
2023-01-29T05:32:03.343Z,101507.70
2023-01-29T05:34:31.525Z,101508.34
2023-01-29T05:36:59.727Z,101498.50
2023-01-29T05:39:27.915Z,101500.23
2023-01-29T05:41:56.101Z,101494.73
2023-01-29T05:44:24.348Z,101490.63
2023-01-29T05:46:52.616Z,101491.02
2023-01-29T05:49:21.806Z,101484.69
2023-01-29T05:51:50.027Z,101486.79
2023-01-29T05:54:18.298Z,101484.93
2023-01-29T05:56:46.544Z,101482.70
2023-01-29T05:59:15.356Z,101488.59
2023-01-29T06:01:43.098Z,101494.08
2023-01-29T06:04:11.371Z,101491.47
2023-01-29T06:06:39.575Z,101491.10
2023-01-29T06:09:09.532Z,101486.61
2023-01-29T06:11:37.834Z,101486.09
2023-01-29T06:14:06.443Z,101470.16
2023-01-29T06:16:34.721Z,101489.30
2023-01-29T06:19:02.987Z,101493.42
2023-01-29T06:21:31.231Z,101495.20
2023-01-29T06:23:59.612Z,101493.18
2023-01-29T06:26:28.020Z,101496.35
2023-01-29T06:28:56.239Z,101489.00
2023-01-29T06:31:37.736Z,101489.37
2023-01-29T06:34:07.365Z,101497.80
2023-01-29T06:36:35.636Z,101500.39
2023-01-29T06:39:04.634Z,101499.70
2023-01-29T06:41:33.014Z,101504.02
2023-01-29T06:44:01.297Z,101498.32
2023-01-29T06:46:29.807Z,101502.77
2023-01-29T06:48:59.905Z,101497.24
2023-01-29T06:51:28.257Z,101497.06
2023-01-29T06:53:56.558Z,101492.23
2023-01-29T06:56:25.000Z,101495.70
2023-01-29T06:58:53.217Z,101501.58
2023-01-29T07:01:35.018Z,101502.31
2023-01-29T07:04:04.151Z,101498.43
2023-01-29T07:06:32.901Z,101502.78
2023-01-29T07:09:01.355Z,101505.74
2023-01-29T07:11:29.755Z,101500.27
2023-01-29T07:13:57.971Z,101498.22
2023-01-29T07:16:26.254Z,101490.84
2023-01-29T07:18:54.851Z,101478.77
2023-01-29T07:21:23.087Z,101473.77
2023-01-29T07:23:51.444Z,101464.98
2023-01-29T07:26:19.691Z,101464.27
2023-01-29T07:28:47.876Z,101464.45
2023-01-29T07:31:16.211Z,101468.42
2023-01-29T07:33:45.183Z,101477.40
2023-01-29T07:36:12.630Z,101476.90
2023-01-29T07:38:40.831Z,101476.25
2023-01-29T07:41:09.965Z,101476.28
2023-01-29T07:43:38.228Z,101482.30
2023-01-29T07:46:06.709Z,101489.38
2023-01-29T07:48:35.240Z,101490.43
2023-01-29T07:51:03.696Z,101491.45
2023-01-29T07:53:32.096Z,101491.80
2023-01-29T07:56:00.305Z,101494.91
2023-01-29T07:58:28.503Z,101494.73
2023-01-29T08:00:56.696Z,101483.55
2023-01-29T08:03:24.917Z,101473.59
2023-01-29T08:05:53.487Z,101471.90
2023-01-29T08:08:21.714Z,101468.67
2023-01-29T08:10:49.993Z,101467.67
2023-01-29T08:13:18.401Z,101465.11
2023-01-29T08:15:46.542Z,101467.38
2023-01-29T08:18:15.035Z,101470.15
2023-01-29T08:20:43.321Z,101473.09
2023-01-29T08:23:14.347Z,101472.23
2023-01-29T08:25:42.916Z,101468.62
2023-01-29T08:28:11.804Z,101462.42
2023-01-29T08:30:40.062Z,101466.39
2023-01-29T08:33:08.343Z,101465.02
2023-01-29T08:35:37.188Z,101466.41
2023-01-29T08:38:05.791Z,101462.30
2023-01-29T08:40:35.087Z,101456.47
2023-01-29T08:43:07.004Z,101454.60
2023-01-29T08:45:37.781Z,101456.86
2023-01-29T08:48:06.739Z,101457.05
2023-01-29T08:50:35.316Z,101456.34
2023-01-29T08:53:06.890Z,101456.35
2023-01-29T08:55:36.974Z,101454.80
2023-01-29T08:58:05.538Z,101456.52
2023-01-29T09:00:34.229Z,101451.52
2023-01-29T09:03:03.147Z,101450.46
2023-01-29T09:05:31.509Z,101448.58
2023-01-29T09:07:59.867Z,101444.64
2023-01-29T09:10:28.191Z,101442.58
2023-01-29T09:12:56.371Z,101437.23
2023-01-29T09:15:24.595Z,101440.52
2023-01-29T09:17:52.854Z,101433.80
2023-01-29T09:20:21.876Z,101424.32
2023-01-29T09:22:52.894Z,101420.35
2023-01-29T09:25:21.392Z,101410.70
2023-01-29T09:27:49.591Z,101405.72
2023-01-29T09:30:19.215Z,101397.80
2023-01-29T09:32:53.591Z,101397.63
2023-01-29T09:35:22.700Z,101391.25
2023-01-29T09:37:51.854Z,101395.75
2023-01-29T09:40:25.922Z,101393.86
2023-01-29T09:42:57.737Z,101397.48
2023-01-29T09:45:27.151Z,101396.11
2023-01-29T09:47:59.927Z,101393.17
2023-01-29T09:50:31.627Z,101385.23
2023-01-29T09:53:02.506Z,101384.02
2023-01-29T09:55:34.841Z,101384.89
2023-01-29T09:58:07.329Z,101380.56
2023-01-29T10:00:40.252Z,101375.40
2023-01-29T10:03:20.703Z,101366.61
2023-01-29T10:06:03.376Z,101360.38
2023-01-29T10:08:56.877Z,101357.11
2023-01-29T10:11:35.815Z,101356.05
2023-01-29T10:14:11.820Z,101350.00
2023-01-29T10:16:49.690Z,101352.76
2023-01-29T10:19:32.123Z,101349.98
2023-01-29T10:22:12.176Z,101344.42
2023-01-29T10:24:47.046Z,101345.27
2023-01-29T10:27:17.051Z,101342.14
2023-01-29T10:29:46.829Z,101339.86
2023-01-29T10:32:17.830Z,101319.48
2023-01-29T10:34:50.022Z,101330.31
2023-01-29T10:37:20.852Z,101331.85
2023-01-29T10:39:49.197Z,101317.87
2023-01-29T10:42:26.584Z,101330.29
2023-01-29T10:45:03.425Z,101333.06
2023-01-29T10:47:44.278Z,101332.91
2023-01-29T10:50:37.480Z,101324.65
2023-01-29T10:53:19.306Z,101326.40
2023-01-29T10:55:53.700Z,101321.20
2023-01-29T10:58:29.509Z,101320.84
2023-01-29T11:00:58.249Z,101319.58
2023-01-29T11:03:28.297Z,101318.20
2023-01-29T11:06:02.793Z,101313.71
2023-01-29T11:08:34.275Z,101310.41
2023-01-29T11:11:07.864Z,101301.48
2023-01-29T11:13:40.388Z,101302.03
2023-01-29T11:16:10.263Z,101294.79
2023-01-29T11:18:58.833Z,101289.45
2023-01-29T11:21:28.988Z,101279.30
2023-01-29T11:24:11.969Z,101284.50
2023-01-29T11:26:41.713Z,101285.52
2023-01-29T11:29:32.136Z,101284.66
2023-01-29T11:32:02.202Z,101284.48
2023-01-29T11:34:30.678Z,101279.83
2023-01-29T11:36:59.976Z,101272.92
2023-01-29T11:39:29.124Z,101263.95
2023-01-29T11:41:59.756Z,101242.23
2023-01-29T11:44:30.138Z,101249.80
2023-01-29T11:47:08.321Z,101242.55
2023-01-29T11:49:36.788Z,101242.54
2023-01-29T11:52:07.317Z,101230.80
2023-01-29T11:54:38.774Z,101229.91
2023-01-29T11:57:20.087Z,101225.77
2023-01-29T11:59:51.035Z,101221.42
2023-01-29T12:02:26.361Z,101214.86
2023-01-29T12:04:56.963Z,101217.25
2023-01-29T12:07:25.454Z,101211.21
2023-01-29T12:09:55.294Z,101207.08
2023-01-29T12:12:32.430Z,101204.52
2023-01-29T12:15:18.958Z,101207.84
2023-01-29T12:17:53.292Z,101203.70
2023-01-29T12:20:25.542Z,101204.55
2023-01-29T12:23:02.218Z,101200.07
2023-01-29T12:25:40.276Z,101193.86
2023-01-29T12:28:17.072Z,101186.84
2023-01-29T12:30:50.479Z,101188.24
2023-01-29T12:33:26.612Z,101184.14
2023-01-29T12:35:56.838Z,101182.95
2023-01-29T12:38:25.995Z,101183.99
2023-01-29T12:40:56.759Z,101183.48
2023-01-29T12:43:29.713Z,101181.77
2023-01-29T12:45:58.745Z,101177.63
2023-01-29T12:48:31.133Z,101181.06
2023-01-29T12:51:04.850Z,101172.44
2023-01-29T12:53:37.059Z,101164.67
2023-01-29T12:56:09.404Z,101159.16
2023-01-29T12:58:41.557Z,101160.90
2023-01-29T13:01:14.171Z,101150.05
2023-01-29T13:03:48.626Z,101149.36
2023-01-29T13:06:18.793Z,101141.62
2023-01-29T13:08:50.775Z,101142.15
2023-01-29T13:11:22.296Z,101143.17
2023-01-29T13:13:54.247Z,101148.34
2023-01-29T13:16:25.886Z,101153.17
2023-01-29T13:18:56.920Z,101157.15
2023-01-29T13:21:27.252Z,101163.54
2023-01-29T13:23:57.499Z,101166.13
2023-01-29T13:26:26.204Z,101165.95
2023-01-29T13:28:53.614Z,101169.40
2023-01-29T13:31:28.390Z,101168.88
2023-01-29T13:33:58.318Z,101160.60
2023-01-29T13:36:28.873Z,101147.35
2023-01-29T13:39:01.191Z,101159.73
2023-01-29T13:41:33.965Z,101159.42
2023-01-29T13:44:02.528Z,101161.33
2023-01-29T13:46:31.178Z,101160.11
2023-01-29T13:49:04.116Z,101155.45
2023-01-29T13:51:34.625Z,101154.23
2023-01-29T13:54:05.696Z,101145.44
2023-01-29T13:56:58.544Z,101129.91
2023-01-29T13:59:50.197Z,101118.35
2023-01-29T14:02:24.838Z,101123.70
2023-01-29T14:05:30.839Z,101123.71
2023-01-29T14:08:00.114Z,101127.86
2023-01-29T14:10:29.662Z,101128.71
2023-01-29T14:13:27.124Z,101128.02
2023-01-29T14:16:26.709Z,101133.20
2023-01-29T14:18:58.800Z,101138.36
2023-01-29T14:21:31.282Z,101136.50
2023-01-29T14:24:07.685Z,101150.27
2023-01-29T14:26:44.633Z,101163.06
2023-01-29T14:29:29.062Z,101172.23
2023-01-29T14:32:11.561Z,101162.21
2023-01-29T14:34:45.525Z,101164.11
2023-01-29T14:37:21.755Z,101168.59
2023-01-29T14:39:51.616Z,101164.29
2023-01-29T14:42:23.334Z,101157.57
2023-01-29T14:45:10.788Z,101158.95
2023-01-29T14:48:02.828Z,101157.23
2023-01-29T14:50:46.929Z,101143.97
2023-01-29T14:53:20.527Z,101133.27
2023-01-29T14:55:54.210Z,101124.47
2023-01-29T14:58:27.057Z,101128.96
2023-01-29T15:00:56.629Z,101118.96
2023-01-29T15:03:31.561Z,101116.71
2023-01-29T15:06:00.611Z,101119.81
2023-01-29T15:08:33.943Z,101118.97
2023-01-29T15:11:25.428Z,101124.48
2023-01-29T15:13:56.848Z,101133.45
2023-01-29T15:16:29.101Z,101129.15
2023-01-29T15:19:04.437Z,101131.21
2023-01-29T15:21:32.580Z,101128.62
2023-01-29T15:24:06.299Z,101121.39
2023-01-29T15:26:36.300Z,101116.89
2023-01-29T15:29:05.282Z,101126.38
2023-01-29T15:31:35.436Z,101125.00
2023-01-29T15:34:06.706Z,101120.36
2023-01-29T15:36:39.156Z,101119.67
2023-01-29T15:39:15.471Z,101119.67
2023-01-29T15:41:44.734Z,101116.04
2023-01-29T15:44:16.044Z,101107.95
2023-01-29T15:46:47.276Z,101099.83
2023-01-29T15:49:28.862Z,101099.64
2023-01-29T15:51:58.599Z,101097.05
2023-01-29T15:54:31.131Z,101101.53
2023-01-29T15:56:59.567Z,101097.39
2023-01-29T15:59:33.799Z,101099.30
2023-01-29T16:02:19.256Z,101097.93
2023-01-29T16:04:47.665Z,101096.90
2023-01-29T16:07:16.350Z,101096.20
2023-01-29T16:09:45.282Z,101092.94
2023-01-29T16:12:13.784Z,101091.70
2023-01-29T16:14:42.701Z,101092.22
2023-01-29T16:17:25.444Z,101089.48
2023-01-29T16:19:57.148Z,101093.44
2023-01-29T16:22:26.007Z,101088.45
2023-01-29T16:24:54.831Z,101085.02
2023-01-29T16:27:22.209Z,101085.88
2023-01-29T16:29:51.569Z,101090.17
2023-01-29T16:32:20.621Z,101090.35
2023-01-29T16:34:51.411Z,101092.76
2023-01-29T16:37:23.355Z,101089.66
2023-01-29T16:40:11.197Z,101092.07
2023-01-29T16:42:40.907Z,101093.80
2023-01-29T16:45:26.354Z,101092.42
2023-01-29T16:52:22.957Z,101093.80
2023-01-29T17:08:21.225Z,101096.54
2023-01-29T17:10:49.695Z,101091.55
2023-01-29T17:13:22.252Z,101088.29
2023-01-29T17:15:50.555Z,101090.70
2023-01-29T17:18:20.773Z,101091.04
2023-01-29T17:20:49.458Z,101082.77
2023-01-29T17:23:17.811Z,101074.14
2023-01-29T17:25:46.547Z,101070.67
2023-01-29T17:28:14.593Z,101068.95
2023-01-29T17:30:46.404Z,101064.13
2023-01-29T17:33:21.911Z,101063.80
2023-01-29T17:35:50.909Z,101058.98
2023-01-29T17:38:26.019Z,101046.91
2023-01-29T17:40:57.435Z,101041.40
2023-01-29T17:43:25.707Z,101036.22
2023-01-29T17:45:54.273Z,101037.07
2023-01-29T17:48:23.749Z,101029.98
2023-01-29T17:50:53.754Z,101026.20
2023-01-29T17:53:23.666Z,101028.27
2023-01-29T17:55:53.114Z,101024.98
2023-01-29T17:58:22.691Z,101011.36
2023-01-29T18:00:52.149Z,101003.43
2023-01-29T18:03:20.775Z,100996.70
2023-01-29T18:05:49.810Z,100989.98
2023-01-29T18:08:18.841Z,100989.63
2023-01-29T18:10:47.311Z,100988.40
2023-01-29T18:13:15.665Z,100983.40
2023-01-29T18:15:44.030Z,100982.02
2023-01-29T18:18:14.655Z,100975.15
2023-01-29T18:20:44.453Z,100970.17
2023-01-29T18:23:12.914Z,100962.44
2023-01-29T18:25:42.414Z,100952.08
2023-01-29T18:28:14.299Z,100950.35
2023-01-29T18:30:43.629Z,100947.41
2023-01-29T18:33:11.921Z,100946.21
2023-01-29T18:35:40.315Z,100941.55
2023-01-29T18:38:08.545Z,100947.41
2023-01-29T18:40:36.740Z,100947.75
2023-01-29T18:43:05.081Z,100943.30
2023-01-29T18:45:33.361Z,100942.27
2023-01-29T18:48:01.786Z,100942.80
2023-01-29T18:50:30.036Z,100943.65
2023-01-29T18:52:58.340Z,100937.63
2023-01-29T18:55:27.291Z,100949.33
2023-01-29T18:58:27.522Z,100947.58
2023-01-29T19:00:44.389Z,100940.16
2023-01-29T19:03:12.739Z,100936.55
2023-01-29T19:05:40.981Z,100940.35
2023-01-29T19:08:09.815Z,100938.64
2023-01-29T19:10:40.561Z,100928.49
2023-01-29T19:13:09.026Z,100924.19
2023-01-29T19:15:37.216Z,100924.20
2023-01-29T19:18:05.591Z,100923.33
2023-01-29T19:20:33.906Z,100917.63
2023-01-29T19:23:02.116Z,100916.06
2023-01-29T19:25:30.330Z,100910.36
2023-01-29T19:27:58.525Z,100920.52
2023-01-29T19:30:26.773Z,100918.79
2023-01-29T19:32:54.969Z,100920.86
2023-01-29T19:35:23.333Z,100921.91
2023-01-29T19:37:51.528Z,100917.43
2023-01-29T19:40:20.342Z,100909.33
2023-01-29T19:42:53.190Z,100900.37
2023-01-29T19:45:37.355Z,100895.34
2023-01-29T19:48:13.778Z,100897.73
2023-01-29T19:50:42.097Z,100894.43
2023-01-29T19:53:10.296Z,100893.41
2023-01-29T19:55:38.600Z,100893.06
2023-01-29T19:58:06.770Z,100892.91
2023-01-29T20:00:34.945Z,100888.44
2023-01-29T20:03:03.195Z,100880.34
2023-01-29T20:05:31.574Z,100880.33
2023-01-29T20:07:59.733Z,100875.63
2023-01-29T20:10:27.980Z,100869.08
2023-01-29T20:12:56.506Z,100868.92
2023-01-29T20:15:24.897Z,100862.20
2023-01-29T20:17:53.084Z,100860.83
2023-01-29T20:20:21.704Z,100852.05
2023-01-29T20:22:52.054Z,100848.79
2023-01-29T20:25:20.285Z,100855.34
2023-01-29T20:27:48.507Z,100847.91
2023-01-29T20:30:17.547Z,100847.55
2023-01-29T20:32:45.877Z,100845.83
2023-01-29T20:35:14.181Z,100843.58
2023-01-29T20:37:42.706Z,100840.84
2023-01-29T20:40:14.912Z,100832.77
2023-01-29T20:42:43.975Z,100829.16
2023-01-29T20:45:12.391Z,100823.67
2023-01-29T20:47:40.622Z,100820.73
2023-01-29T20:50:11.477Z,100815.39
2023-01-29T20:52:40.703Z,100808.84
2023-01-29T20:55:11.127Z,100806.56
2023-01-29T20:57:40.001Z,100804.16
2023-01-29T21:00:11.198Z,100804.33
2023-01-29T21:02:39.427Z,100799.18
2023-01-29T21:05:08.365Z,100796.61
2023-01-29T21:07:36.622Z,100794.18
2023-01-29T21:10:06.268Z,100794.19
2023-01-29T21:12:34.470Z,100783.70
2023-01-29T21:15:02.773Z,100785.55
2023-01-29T21:17:31.005Z,100785.17
2023-01-29T21:19:59.292Z,100784.14
2023-01-29T21:22:27.562Z,100779.64
2023-01-29T21:24:55.775Z,100777.23
2023-01-29T21:27:25.087Z,100776.56
2023-01-29T21:29:53.335Z,100778.84
2023-01-29T21:32:21.667Z,100775.06
2023-01-29T21:34:52.487Z,100776.61
2023-01-29T21:37:20.863Z,100775.37
2023-01-29T21:39:49.126Z,100772.73
2023-01-29T21:42:35.196Z,100770.29
2023-01-29T21:45:04.125Z,100771.70
2023-01-29T21:47:32.336Z,100766.95
2023-01-29T21:50:00.545Z,100770.55
2023-01-29T21:52:28.801Z,100762.80
2023-01-29T21:54:56.986Z,100759.85
2023-01-29T21:57:25.973Z,100746.98
2023-01-29T21:59:54.506Z,100760.32
2023-01-29T22:02:23.351Z,100758.73
2023-01-29T22:05:02.420Z,100753.54
2023-01-29T22:07:37.697Z,100743.04
2023-01-29T22:10:07.107Z,100741.86
2023-01-29T22:12:35.887Z,100737.05
2023-01-29T22:15:04.149Z,100734.29
2023-01-29T22:17:32.321Z,100727.05
2023-01-29T22:20:00.638Z,100722.55
2023-01-29T22:22:28.847Z,100714.75
2023-01-29T22:24:58.424Z,100712.82
2023-01-29T22:27:26.642Z,100702.98
2023-01-29T22:29:54.827Z,100695.61
2023-01-29T22:32:23.120Z,100685.49
2023-01-29T22:34:51.413Z,100682.94
2023-01-29T22:37:19.643Z,100681.24
2023-01-29T22:39:47.889Z,100675.91
2023-01-29T22:42:16.410Z,100668.70
2023-01-29T22:44:44.918Z,100661.27
2023-01-29T22:47:13.112Z,100658.95
2023-01-29T22:49:41.283Z,100655.98
2023-01-29T22:52:09.510Z,100642.38
2023-01-29T22:54:38.557Z,100639.27
2023-01-29T22:57:09.337Z,100629.82
2023-01-29T22:59:37.564Z,100628.82
2023-01-29T23:02:06.011Z,100624.86
2023-01-29T23:04:34.331Z,100619.16
2023-01-29T23:07:02.933Z,100607.05
2023-01-29T23:09:30.489Z,100604.76
2023-01-29T23:11:58.757Z,100599.52
2023-01-29T23:14:26.929Z,100597.71
2023-01-29T23:16:55.565Z,100588.22
2023-01-29T23:19:23.789Z,100584.27
2023-01-29T23:21:52.030Z,100578.06
2023-01-29T23:24:20.534Z,100576.20
2023-01-29T23:27:06.727Z,100570.86
2023-01-29T23:29:35.052Z,100565.16
2023-01-29T23:32:03.658Z,100560.52
2023-01-29T23:34:31.943Z,100553.73
2023-01-29T23:37:00.135Z,100550.91
2023-01-29T23:39:28.487Z,100549.48
2023-01-29T23:41:56.764Z,100542.59
2023-01-29T23:44:25.044Z,100539.34
2023-01-29T23:46:53.436Z,100533.64
2023-01-29T23:49:21.941Z,100533.69
2023-01-29T23:51:50.527Z,100528.68
2023-01-29T23:54:18.795Z,100525.55
2023-01-29T23:56:46.997Z,100522.23
2023-01-29T23:59:15.366Z,100517.53
